Accueil
METAR-TAF:

METAR-TAF

Aéroports :

Niamey, Niger

Aéroport international Diori Hamani

latitude: 13-29N, longitude: 002-10E, altitude: 223 m

Observation

Le bulletin a été fait il y a 1 heure et 6 minutes, à 03:00 UTC
Vent 1 kt de sud
Température 21°C
Humidité 53%
Pression 1010 hPa
Visibilité: 8000 m

METAR: DRRN 240300Z 17001KT 8000 NSC 21/11 Q1010 NOSIG

Heure: 05:06 (04:06 UTC)

Prévision

Le bulletin a été fait il y a 5 heures et 6 minutes, à 23:00 UTC
Prévision valable du 24 à 00 UTC au 25 à 06 UTC
Vent 6 kt de sud-est
Visibilité: 8000 m
Temporairement
du 24 à 06 UTC au 24 à 09 UTC
Visibilité: 3500 m
poussière généralisée
Temporairement
du 24 à 17 UTC au 24 à 20 UTC
Visibilité: 3500 m
poussière généralisée

TAF: DRRN 232300Z 2400/2506 14006KT 8000 NSC TEMPO 2406/2409 3500 DU TEMPO 2417/2420 3500 DU

Observations et prévisions météorologiques de plus de 4000 aéroports (messages METAR et TAF).

Les stations disponibles sont représentées par des disques jaunes et rouges sur la carte.

Passer la souris dessus pour voir le nom de la station.

Cliquer dessus pour voir les observations et prévisions météorologiques.

Pour changer de carte: cliquez sur les boutons verts avec une croix noire pour zoomer, sur le bouton vert avec un tiret pour effectuer un zoom arrière, ou sur les flèches vertes pour les cartes adjacentes.


METAR-TAF: